Time;durP1;ratioP1;P1;durP2;ratioP2;P2;SDS_P1;SDS_P2;PMS_P1;PMS_P2;Temp;Humidity;BMP_temperature;BMP_pressure;BME280_temperature;BME280_humidity;BME280_pressure;Samples;Min_cycle;Max_cycle;Signal;HPM_P1;HPM_P2
2023/12/04 00:01:03;;;;;;;25.80;12.38;;;;;;;;;;4987402;28;20167;-83
2023/12/04 00:03:48;;;;;;;24.23;12.50;;;;;;;;;;4977618;28;20057;-83
2023/12/04 00:06:33;;;;;;;26.50;11.85;;;;;;;;;;4986830;28;20088;-85
2023/12/04 00:09:19;;;;;;;28.50;13.52;;;;;;;;;;4984775;28;20025;-84
2023/12/04 00:12:07;;;;;;;23.90;11.65;;;;;;;;;;4979085;28;20484;-83
2023/12/04 00:14:52;;;;;;;29.33;14.95;;;;;;;;;;4975898;28;20065;-84
2023/12/04 00:17:39;;;;;;;33.35;14.60;;;;;;;;;;4965924;28;20030;-84
2023/12/04 00:20:25;;;;;;;29.63;15.35;;;;;;;;;;4975548;28;20037;-83
2023/12/04 00:23:10;;;;;;;26.63;13.25;;;;;;;;;;4973579;28;20050;-84
2023/12/04 00:25:55;;;;;;;25.25;13.73;;;;;;;;;;4975308;28;20025;-83
2023/12/04 00:28:41;;;;;;;25.35;13.25;;;;;;;;;;4983349;28;20026;-83
2023/12/04 00:31:26;;;;;;;26.15;13.50;;;;;;;;;;4974759;28;20107;-82
2023/12/04 00:34:12;;;;;;;24.92;13.07;;;;;;;;;;4985892;28;20038;-83
2023/12/04 00:36:57;;;;;;;22.88;12.13;;;;;;;;;;4966167;28;20085;-83
2023/12/04 00:39:42;;;;;;;24.70;12.18;;;;;;;;;;4982055;28;20551;-83
2023/12/04 00:42:27;;;;;;;24.13;12.57;;;;;;;;;;4974366;28;20034;-85
2023/12/04 00:45:13;;;;;;;23.98;12.43;;;;;;;;;;4970669;28;20050;-84
2023/12/04 00:47:58;;;;;;;23.33;12.00;;;;;;;;;;4997832;28;20061;-84
2023/12/04 00:50:43;;;;;;;24.13;13.85;;;;;;;;;;4986438;28;20696;-86
2023/12/04 00:53:28;;;;;;;24.02;11.65;;;;;;;;;;4979675;28;20507;-85
2023/12/04 00:56:14;;;;;;;21.30;12.10;;;;;;;;;;4976522;28;20120;-84
2023/12/04 00:58:59;;;;;;;24.98;14.18;;;;;;;;;;4968052;28;20334;-85
2023/12/04 01:01:44;;;;;;;20.02;12.32;;;;;;;;;;4985655;28;20089;-85
2023/12/04 01:04:31;;;;;;;23.48;12.50;;;;;;;;;;4981636;28;20042;-85
2023/12/04 01:07:16;;;;;;;21.25;10.63;;;;;;;;;;4968057;28;20487;-86
2023/12/04 01:10:03;;;;;;;22.75;12.00;;;;;;;;;;4966884;28;20030;-85
2023/12/04 01:12:48;;;;;;;22.20;11.18;;;;;;;;;;4976108;28;20032;-86
2023/12/04 01:15:33;;;;;;;22.40;11.68;;;;;;;;;;4977491;28;20034;-84
2023/12/04 01:18:21;;;;;;;19.40;10.27;;;;;;;;;;4980180;28;20109;-84
2023/12/04 01:21:06;;;;;;;24.67;11.73;;;;;;;;;;4985583;28;20321;-82
2023/12/04 01:23:52;;;;;;;20.63;10.30;;;;;;;;;;4971132;28;20026;-84
2023/12/04 01:26:37;;;;;;;19.95;10.65;;;;;;;;;;4972057;28;20134;-84
2023/12/04 01:29:23;;;;;;;21.08;9.85;;;;;;;;;;4981695;28;20064;-84
2023/12/04 01:32:08;;;;;;;20.27;10.40;;;;;;;;;;4981978;28;20452;-83
2023/12/04 01:34:53;;;;;;;20.58;10.55;;;;;;;;;;4981539;28;20095;-83
2023/12/04 01:37:39;;;;;;;22.08;10.98;;;;;;;;;;4981783;28;20019;-84
2023/12/04 01:40:24;;;;;;;22.20;12.23;;;;;;;;;;4986956;28;20025;-84
2023/12/04 01:43:09;;;;;;;20.83;10.80;;;;;;;;;;4978273;28;20040;-83
2023/12/04 01:45:54;;;;;;;21.20;10.52;;;;;;;;;;4980859;28;20030;-83
2023/12/04 01:48:40;;;;;;;18.92;10.10;;;;;;;;;;4983836;28;20057;-84
2023/12/04 01:51:26;;;;;;;21.45;11.80;;;;;;;;;;4976578;28;20026;-85
2023/12/04 01:54:11;;;;;;;19.35;9.88;;;;;;;;;;4983851;28;20041;-84
2023/12/04 01:57:01;;;;;;;24.02;10.82;;;;;;;;;;4987317;28;20026;-85
2023/12/04 01:59:46;;;;;;;;;;;;;;;;;;4976431;28;20038;-81
2023/12/04 02:02:31;;;;;;;24.70;11.45;;;;;;;;;;4971247;28;20355;-84
2023/12/04 02:05:17;;;;;;;23.30;11.38;;;;;;;;;;4977474;28;20022;-81
2023/12/04 02:08:03;;;;;;;21.88;10.63;;;;;;;;;;4977155;28;20061;-84
2023/12/04 02:10:48;;;;;;;20.40;10.55;;;;;;;;;;4978038;28;20420;-84
2023/12/04 02:13:34;;;;;;;20.45;10.95;;;;;;;;;;4978794;28;20027;-83
2023/12/04 02:16:19;;;;;;;19.77;9.68;;;;;;;;;;4985265;28;20109;-84
2023/12/04 02:19:07;;;;;;;19.35;11.07;;;;;;;;;;4979088;28;20472;-83
2023/12/04 02:21:52;;;;;;;20.83;10.27;;;;;;;;;;4980320;28;20552;-84
2023/12/04 02:28:09;;;;;;;17.33;9.70;;;;;;;;;;4959769;28;20030;-84
2023/12/04 02:30:54;;;;;;;22.30;11.98;;;;;;;;;;4986101;28;20508;-83
2023/12/04 02:33:40;;;;;;;18.60;9.68;;;;;;;;;;4981921;28;20022;-83
2023/12/04 02:36:26;;;;;;;18.73;10.82;;;;;;;;;;4982571;28;20034;-83
2023/12/04 02:39:12;;;;;;;19.85;10.23;;;;;;;;;;4981803;28;20139;-83
2023/12/04 02:41:57;;;;;;;20.33;10.13;;;;;;;;;;4978413;28;20113;-84
2023/12/04 02:44:43;;;;;;;16.48;9.40;;;;;;;;;;4989647;28;20021;-83
2023/12/04 02:47:28;;;;;;;19.83;9.70;;;;;;;;;;4979164;28;20026;-84
2023/12/04 02:50:13;;;;;;;21.00;10.68;;;;;;;;;;4977079;28;20025;-83
2023/12/04 02:52:58;;;;;;;20.77;11.82;;;;;;;;;;4972641;28;20022;-83
2023/12/04 02:55:44;;;;;;;18.00;10.15;;;;;;;;;;4985193;28;20026;-83
2023/12/04 02:58:29;;;;;;;23.52;11.45;;;;;;;;;;4979915;28;20080;-83
2023/12/04 03:01:14;;;;;;;20.33;11.40;;;;;;;;;;4979047;28;20058;-83
2023/12/04 03:03:59;;;;;;;18.08;10.35;;;;;;;;;;4978023;28;20070;-83
2023/12/04 03:06:44;;;;;;;19.98;10.95;;;;;;;;;;4984170;28;20079;-84
2023/12/04 03:09:30;;;;;;;22.23;11.02;;;;;;;;;;4982218;28;20033;-83
2023/12/04 03:12:16;;;;;;;18.80;10.82;;;;;;;;;;4975363;28;20041;-86
2023/12/04 03:15:01;;;;;;;21.33;11.10;;;;;;;;;;4990411;28;20044;-82
2023/12/04 03:17:47;;;;;;;22.30;12.50;;;;;;;;;;4985132;28;20037;-85
2023/12/04 03:20:33;;;;;;;20.33;11.60;;;;;;;;;;4988826;28;20088;-84
2023/12/04 03:23:18;;;;;;;19.30;9.85;;;;;;;;;;4986976;28;20472;-84
2023/12/04 03:26:03;;;;;;;18.35;10.07;;;;;;;;;;4973264;28;20037;-84
2023/12/04 03:28:48;;;;;;;18.42;10.32;;;;;;;;;;4984260;28;20032;-83
2023/12/04 03:31:34;;;;;;;20.25;10.25;;;;;;;;;;4979291;28;20493;-84
2023/12/04 03:34:19;;;;;;;18.23;10.13;;;;;;;;;;4987328;28;20091;-85
2023/12/04 03:37:04;;;;;;;19.85;10.23;;;;;;;;;;4965964;28;20026;-83
2023/12/04 03:39:50;;;;;;;20.85;10.57;;;;;;;;;;4986919;28;20061;-82
2023/12/04 03:42:35;;;;;;;18.77;10.52;;;;;;;;;;4976786;28;20029;-84
2023/12/04 03:45:21;;;;;;;18.95;10.38;;;;;;;;;;4987370;28;20031;-83
2023/12/04 03:48:07;;;;;;;18.60;9.75;;;;;;;;;;4968290;28;20054;-83
2023/12/04 03:50:52;;;;;;;18.60;10.35;;;;;;;;;;4988359;28;20035;-84
2023/12/04 03:53:37;;;;;;;18.40;9.90;;;;;;;;;;4986999;28;20073;-82
2023/12/04 03:56:22;;;;;;;21.35;11.10;;;;;;;;;;4982344;28;20468;-83
2023/12/04 03:59:08;;;;;;;20.02;10.82;;;;;;;;;;4982770;28;20564;-83
2023/12/04 04:01:54;;;;;;;20.35;10.82;;;;;;;;;;4977545;28;20042;-84
2023/12/04 04:04:39;;;;;;;19.95;10.75;;;;;;;;;;4982571;28;20061;-83
2023/12/04 04:07:24;;;;;;;17.45;9.45;;;;;;;;;;4963330;28;20382;-82
2023/12/04 04:10:09;;;;;;;20.95;10.85;;;;;;;;;;4986483;28;20026;-82
2023/12/04 04:12:55;;;;;;;23.38;10.63;;;;;;;;;;4967834;28;20034;-83
2023/12/04 04:15:40;;;;;;;17.77;8.75;;;;;;;;;;4980758;28;20057;-82
2023/12/04 04:18:26;;;;;;;21.48;11.00;;;;;;;;;;4984717;28;20061;-82
2023/12/04 04:21:11;;;;;;;20.52;10.88;;;;;;;;;;4983511;28;20032;-83
2023/12/04 04:23:56;;;;;;;18.50;9.93;;;;;;;;;;4973376;28;20037;-83
2023/12/04 04:26:42;;;;;;;19.15;9.75;;;;;;;;;;4960595;28;20330;-85
2023/12/04 04:29:27;;;;;;;18.40;9.57;;;;;;;;;;4975300;28;20073;-84
2023/12/04 04:32:12;;;;;;;18.35;9.18;;;;;;;;;;4978928;28;20156;-84
2023/12/04 04:34:58;;;;;;;16.42;9.23;;;;;;;;;;4984759;28;20560;-83
2023/12/04 04:37:43;;;;;;;18.88;9.07;;;;;;;;;;4977669;28;20034;-85
2023/12/04 04:40:28;;;;;;;17.65;8.98;;;;;;;;;;4978943;28;20481;-87
2023/12/04 04:43:13;;;;;;;19.50;9.38;;;;;;;;;;4984522;28;20037;-83
2023/12/04 04:45:59;;;;;;;14.43;8.88;;;;;;;;;;4974621;28;20069;-82
2023/12/04 04:48:44;;;;;;;18.23;9.45;;;;;;;;;;4983072;28;20117;-82
2023/12/04 04:51:29;;;;;;;17.75;9.13;;;;;;;;;;4971766;28;20444;-83
2023/12/04 04:54:14;;;;;;;16.80;8.82;;;;;;;;;;4981360;28;20456;-85
2023/12/04 04:56:59;;;;;;;18.92;9.48;;;;;;;;;;4982106;28;20440;-83
2023/12/04 04:59:45;;;;;;;18.83;9.98;;;;;;;;;;4982164;28;20086;-83
2023/12/04 05:02:31;;;;;;;17.63;9.80;;;;;;;;;;4975497;28;20026;-82
2023/12/04 05:05:16;;;;;;;17.33;8.95;;;;;;;;;;4976038;28;20083;-84
2023/12/04 05:08:01;;;;;;;18.23;9.80;;;;;;;;;;4978166;28;20042;-83
2023/12/04 05:10:46;;;;;;;22.05;9.77;;;;;;;;;;4959843;28;20038;-83
2023/12/04 05:13:32;;;;;;;17.00;9.30;;;;;;;;;;4972700;28;20029;-82
2023/12/04 05:16:17;;;;;;;18.92;9.70;;;;;;;;;;4973437;28;20034;-84
2023/12/04 05:19:02;;;;;;;19.92;10.30;;;;;;;;;;4956320;28;20034;-82
2023/12/04 05:21:47;;;;;;;17.25;9.85;;;;;;;;;;4970745;28;20098;-83
2023/12/04 05:24:33;;;;;;;20.95;10.57;;;;;;;;;;4972753;28;20384;-82
2023/12/04 05:27:18;;;;;;;17.42;9.63;;;;;;;;;;4981725;28;20044;-82
2023/12/04 05:30:04;;;;;;;19.02;10.23;;;;;;;;;;4982134;28;20042;-82
2023/12/04 05:32:49;;;;;;;16.52;8.80;;;;;;;;;;4973357;28;20065;-83
2023/12/04 05:35:36;;;;;;;18.17;10.07;;;;;;;;;;4973344;28;20018;-82
2023/12/04 05:38:21;;;;;;;16.85;9.40;;;;;;;;;;4990690;28;20029;-83
2023/12/04 05:41:06;;;;;;;19.80;11.02;;;;;;;;;;4988831;28;20045;-83
2023/12/04 05:43:52;;;;;;;18.17;9.45;;;;;;;;;;4974739;28;20038;-84
2023/12/04 05:46:38;;;;;;;19.23;10.02;;;;;;;;;;4976720;28;20030;-80
2023/12/04 05:49:24;;;;;;;18.90;9.48;;;;;;;;;;5011868;28;20027;-77
2023/12/04 05:52:09;;;;;;;19.38;9.05;;;;;;;;;;4978065;28;20133;-80
2023/12/04 05:54:53;;;;;;;18.02;9.70;;;;;;;;;;4988516;28;20041;-81
2023/12/04 05:57:39;;;;;;;20.35;10.95;;;;;;;;;;4991070;28;20031;-80
2023/12/04 06:00:25;;;;;;;16.92;7.78;;;;;;;;;;4993028;28;20110;-82
2023/12/04 06:03:10;;;;;;;21.38;9.63;;;;;;;;;;4995448;28;20117;-83
2023/12/04 06:05:56;;;;;;;14.02;7.97;;;;;;;;;;4989886;28;20472;-84
2023/12/04 06:08:41;;;;;;;18.27;8.88;;;;;;;;;;4983916;28;20093;-83
2023/12/04 06:11:26;;;;;;;16.00;8.90;;;;;;;;;;4977231;28;20050;-83
2023/12/04 06:14:12;;;;;;;16.30;9.25;;;;;;;;;;4978928;28;20085;-84
2023/12/04 06:16:57;;;;;;;16.50;9.02;;;;;;;;;;4973196;28;20018;-84
2023/12/04 06:19:42;;;;;;;17.92;9.40;;;;;;;;;;4978131;28;20041;-84
2023/12/04 06:22:28;;;;;;;14.52;8.60;;;;;;;;;;4979011;28;20069;-83
2023/12/04 06:25:13;;;;;;;15.70;8.40;;;;;;;;;;4973746;28;20034;-85
2023/12/04 06:27:59;;;;;;;16.40;9.30;;;;;;;;;;4982665;28;20121;-83
2023/12/04 06:30:44;;;;;;;17.88;8.45;;;;;;;;;;4986412;28;20081;-83
2023/12/04 06:33:30;;;;;;;15.77;8.40;;;;;;;;;;4976357;28;20028;-84
2023/12/04 06:36:17;;;;;;;15.43;8.38;;;;;;;;;;4982780;28;20228;-85
2023/12/04 06:39:04;;;;;;;18.25;8.77;;;;;;;;;;4975273;28;20429;-84
2023/12/04 06:41:49;;;;;;;19.70;9.50;;;;;;;;;;4963423;28;20026;-84
2023/12/04 06:44:35;;;;;;;16.88;8.43;;;;;;;;;;4973864;28;20034;-84
2023/12/04 06:47:22;;;;;;;16.75;9.13;;;;;;;;;;4975069;28;20065;-87
2023/12/04 06:50:08;;;;;;;13.40;8.63;;;;;;;;;;4979761;28;20045;-87
2023/12/04 06:52:53;;;;;;;18.85;9.88;;;;;;;;;;4979704;28;20060;-86
2023/12/04 06:55:38;;;;;;;16.25;9.00;;;;;;;;;;4966472;28;20027;-86
2023/12/04 06:58:23;;;;;;;19.10;9.45;;;;;;;;;;4978153;28;20286;-86
2023/12/04 07:01:09;;;;;;;15.63;9.38;;;;;;;;;;4974770;28;20034;-87
2023/12/04 07:03:54;;;;;;;14.65;9.15;;;;;;;;;;4975520;28;20445;-88
2023/12/04 07:06:39;;;;;;;19.73;9.95;;;;;;;;;;4973282;28;20100;-84
2023/12/04 07:09:25;;;;;;;18.95;8.50;;;;;;;;;;4972083;28;20026;-87
2023/12/04 07:12:10;;;;;;;22.13;9.63;;;;;;;;;;4985844;28;20030;-87
2023/12/04 07:14:55;;;;;;;18.20;8.82;;;;;;;;;;4971701;28;20030;-90
2023/12/04 07:17:41;;;;;;;16.70;8.07;;;;;;;;;;4977420;28;20026;-88
2023/12/04 07:20:28;;;;;;;17.60;9.95;;;;;;;;;;4978787;28;20026;-90
2023/12/04 07:23:13;;;;;;;15.35;9.05;;;;;;;;;;4976603;28;20105;-89
2023/12/04 07:26:33;;;;;;;17.55;9.95;;;;;;;;;;4985931;28;20097;-92
2023/12/04 07:29:22;;;;;;;17.52;9.90;;;;;;;;;;4975067;28;20029;-86
2023/12/04 07:32:07;;;;;;;19.98;10.27;;;;;;;;;;4976113;28;20168;-82
2023/12/04 07:34:52;;;;;;;18.23;9.57;;;;;;;;;;4972735;28;20030;-83
2023/12/04 07:37:38;;;;;;;15.48;9.38;;;;;;;;;;4955119;28;20525;-84
2023/12/04 07:40:23;;;;;;;17.52;8.90;;;;;;;;;;4971391;28;20355;-84
2023/12/04 07:43:08;;;;;;;15.70;8.30;;;;;;;;;;4955366;28;20026;-85
2023/12/04 07:45:55;;;;;;;17.85;9.55;;;;;;;;;;4954686;28;20069;-84
2023/12/04 07:48:40;;;;;;;16.38;8.73;;;;;;;;;;4955215;28;20069;-84
2023/12/04 07:51:25;;;;;;;16.00;10.25;;;;;;;;;;4955962;28;20401;-84
2023/12/04 07:54:11;;;;;;;17.83;10.00;;;;;;;;;;4955477;28;20023;-83
2023/12/04 07:56:56;;;;;;;19.30;9.77;;;;;;;;;;4955317;28;20031;-84
2023/12/04 07:59:42;;;;;;;19.65;9.88;;;;;;;;;;4955531;28;20031;-84
2023/12/04 08:02:27;;;;;;;18.75;10.60;;;;;;;;;;4954175;28;20038;-83
2023/12/04 08:05:13;;;;;;;20.13;9.13;;;;;;;;;;4953888;28;20063;-84
2023/12/04 08:07:58;;;;;;;19.55;10.35;;;;;;;;;;4955114;28;20022;-84
2023/12/04 08:10:43;;;;;;;15.82;8.90;;;;;;;;;;4954065;28;20027;-83
2023/12/04 08:13:29;;;;;;;18.85;9.20;;;;;;;;;;4963759;28;20042;-84
2023/12/04 08:16:17;;;;;;;21.00;10.77;;;;;;;;;;4965725;28;20502;-84
2023/12/04 08:19:02;;;;;;;21.40;10.30;;;;;;;;;;4954467;28;20034;-83
2023/12/04 08:21:48;;;;;;;16.58;9.55;;;;;;;;;;4947146;28;20038;-83
2023/12/04 08:24:33;;;;;;;16.98;9.68;;;;;;;;;;4954279;28;20030;-83
2023/12/04 08:27:18;;;;;;;20.52;10.93;;;;;;;;;;4954023;28;20049;-84
2023/12/04 08:30:04;;;;;;;22.08;10.85;;;;;;;;;;4957953;28;20709;-84
2023/12/04 08:32:52;;;;;;;21.73;10.88;;;;;;;;;;4987501;28;20038;-83
2023/12/04 08:35:45;;;;;;;18.35;10.70;;;;;;;;;;4981648;28;20042;-84
2023/12/04 08:38:30;;;;;;;21.77;10.60;;;;;;;;;;4973258;28;20029;-85
2023/12/04 08:41:15;;;;;;;18.42;10.27;;;;;;;;;;4972794;28;20027;-84
2023/12/04 08:44:01;;;;;;;27.15;10.25;;;;;;;;;;4974203;28;20038;-84
2023/12/04 08:46:50;;;;;;;18.98;9.65;;;;;;;;;;4973230;28;20048;-85
2023/12/04 08:49:35;;;;;;;18.15;9.75;;;;;;;;;;4973336;28;20018;-85
2023/12/04 08:52:20;;;;;;;18.08;10.00;;;;;;;;;;4973665;28;20019;-85
2023/12/04 08:55:06;;;;;;;17.02;8.93;;;;;;;;;;4973040;28;20114;-83
2023/12/04 08:57:52;;;;;;;16.38;8.52;;;;;;;;;;4973457;28;20030;-84
2023/12/04 09:00:42;;;;;;;17.70;9.85;;;;;;;;;;4973446;28;20029;-84
2023/12/04 09:03:28;;;;;;;18.40;9.93;;;;;;;;;;4972858;28;20066;-84
2023/12/04 09:06:14;;;;;;;18.35;10.05;;;;;;;;;;4973350;28;20030;-84
2023/12/04 09:09:02;;;;;;;17.45;9.10;;;;;;;;;;4960468;28;20033;-84
2023/12/04 09:11:48;;;;;;;19.08;10.45;;;;;;;;;;4973358;28;20037;-84
2023/12/04 09:14:33;;;;;;;18.33;9.43;;;;;;;;;;4991429;28;20106;-83
2023/12/04 09:17:20;;;;;;;17.52;9.40;;;;;;;;;;4978606;28;20031;-84
2023/12/04 09:20:05;;;;;;;17.55;9.77;;;;;;;;;;4973388;28;20034;-84
2023/12/04 09:22:51;;;;;;;20.30;10.32;;;;;;;;;;4973505;28;20041;-85
2023/12/04 09:25:36;;;;;;;15.57;8.80;;;;;;;;;;4973755;28;20060;-83
2023/12/04 09:28:21;;;;;;;18.70;10.63;;;;;;;;;;4973584;28;20101;-86
2023/12/04 09:31:08;;;;;;;17.50;9.25;;;;;;;;;;4976317;28;20050;-85
2023/12/04 09:33:53;;;;;;;18.15;9.10;;;;;;;;;;4973971;28;20154;-86
2023/12/04 09:36:39;;;;;;;16.95;7.55;;;;;;;;;;4973354;28;20124;-86
2023/12/04 09:39:24;;;;;;;18.02;8.30;;;;;;;;;;4973037;28;20058;-85
2023/12/04 09:42:10;;;;;;;12.88;7.18;;;;;;;;;;4972492;28;20068;-86
2023/12/04 09:44:55;;;;;;;14.40;8.13;;;;;;;;;;4972504;28;20041;-85
2023/12/04 09:47:41;;;;;;;15.98;8.60;;;;;;;;;;4972517;28;20038;-85
2023/12/04 09:50:27;;;;;;;16.45;9.55;;;;;;;;;;4972746;28;20073;-83
2023/12/04 09:53:13;;;;;;;15.25;7.65;;;;;;;;;;4972357;28;20034;-83
2023/12/04 09:55:59;;;;;;;12.25;6.70;;;;;;;;;;4972294;28;20026;-86
2023/12/04 09:58:45;;;;;;;14.60;7.82;;;;;;;;;;4972928;28;20037;-85
2023/12/04 10:01:30;;;;;;;13.43;7.78;;;;;;;;;;4972239;28;20030;-85
2023/12/04 10:04:15;;;;;;;16.08;8.15;;;;;;;;;;4972535;28;20608;-86
2023/12/04 10:07:01;;;;;;;14.15;7.30;;;;;;;;;;4971705;28;20049;-84
2023/12/04 10:09:46;;;;;;;15.35;8.00;;;;;;;;;;4972215;28;20034;-85
2023/12/04 10:12:33;;;;;;;17.50;8.70;;;;;;;;;;4973498;28;20105;-85
2023/12/04 10:15:19;;;;;;;15.35;8.73;;;;;;;;;;4991803;28;20026;-86
2023/12/04 10:18:04;;;;;;;15.43;7.85;;;;;;;;;;4975660;28;20121;-86
2023/12/04 10:20:54;;;;;;;15.15;7.97;;;;;;;;;;4972591;28;20230;-84
2023/12/04 10:23:40;;;;;;;13.52;8.20;;;;;;;;;;4972791;28;20038;-85
2023/12/04 10:26:26;;;;;;;13.63;7.80;;;;;;;;;;4971682;28;20030;-85
2023/12/04 10:29:11;;;;;;;17.30;9.32;;;;;;;;;;4991332;28;20034;-85
2023/12/04 10:32:02;;;;;;;14.70;8.50;;;;;;;;;;4973405;28;20085;-85
2023/12/04 10:34:48;;;;;;;16.02;7.70;;;;;;;;;;4972402;28;20046;-86
2023/12/04 10:37:35;;;;;;;13.10;7.22;;;;;;;;;;4972169;28;20188;-85
2023/12/04 10:40:24;;;;;;;12.98;7.53;;;;;;;;;;4972534;28;20956;-86
2023/12/04 10:43:10;;;;;;;12.18;6.68;;;;;;;;;;4975805;28;20120;-83
2023/12/04 10:45:56;;;;;;;14.07;7.38;;;;;;;;;;4975748;28;20049;-86
2023/12/04 10:48:41;;;;;;;12.43;6.60;;;;;;;;;;4975643;28;20065;-86
2023/12/04 10:51:27;;;;;;;13.65;7.30;;;;;;;;;;4975950;28;20026;-85
2023/12/04 10:54:13;;;;;;;13.75;7.38;;;;;;;;;;4975630;28;20058;-84
2023/12/04 10:57:02;;;;;;;13.63;7.38;;;;;;;;;;4975263;28;20069;-85
2023/12/04 10:59:51;;;;;;;15.57;7.65;;;;;;;;;;4975167;28;20034;-85
2023/12/04 11:02:46;;;;;;;14.00;7.55;;;;;;;;;;4975005;28;20034;-86
2023/12/04 11:05:33;;;;;;;14.88;7.15;;;;;;;;;;4974999;28;20027;-84
2023/12/04 11:08:18;;;;;;;16.23;7.53;;;;;;;;;;4975498;28;20030;-83
2023/12/04 11:11:16;;;;;;;13.02;7.70;;;;;;;;;;4975276;28;20029;-84
2023/12/04 11:14:11;;;;;;;15.02;7.45;;;;;;;;;;4988485;28;20112;-85
2023/12/04 11:17:00;;;;;;;11.73;7.70;;;;;;;;;;4990574;28;20030;-86
2023/12/04 11:19:48;;;;;;;13.85;8.35;;;;;;;;;;4976445;28;20041;-85
2023/12/04 11:22:35;;;;;;;15.30;7.88;;;;;;;;;;4975754;28;20117;-85
2023/12/04 11:25:23;;;;;;;14.00;6.97;;;;;;;;;;4993710;28;20499;-85
2023/12/04 11:28:09;;;;;;;16.77;8.10;;;;;;;;;;4982359;28;20096;-85
2023/12/04 11:30:57;;;;;;;14.55;7.60;;;;;;;;;;4975640;28;20054;-86
2023/12/04 11:33:43;;;;;;;13.25;7.22;;;;;;;;;;4975725;28;20459;-85
2023/12/04 11:36:31;;;;;;;16.98;8.77;;;;;;;;;;4976647;28;20030;-86
2023/12/04 11:39:18;;;;;;;14.43;7.68;;;;;;;;;;4976429;28;20030;-85
2023/12/04 11:42:09;;;;;;;14.50;8.32;;;;;;;;;;4976136;28;20038;-85
2023/12/04 11:44:58;;;;;;;13.38;7.15;;;;;;;;;;4975615;28;20026;-85
2023/12/04 11:47:59;;;;;;;15.38;7.43;;;;;;;;;;4975742;28;20030;-85
2023/12/04 11:50:45;;;;;;;13.40;7.80;;;;;;;;;;4975713;28;20034;-85
2023/12/04 11:53:32;;;;;;;13.55;7.47;;;;;;;;;;4983918;28;20034;-85
2023/12/04 11:56:17;;;;;;;12.68;7.60;;;;;;;;;;4987369;28;20113;-85
2023/12/04 11:59:12;;;;;;;13.25;7.78;;;;;;;;;;4979906;28;20030;-85
2023/12/04 12:01:58;;;;;;;14.70;8.10;;;;;;;;;;4980664;28;20030;-83
2023/12/04 12:04:46;;;;;;;17.13;8.68;;;;;;;;;;4974428;28;20023;-85
2023/12/04 12:07:31;;;;;;;14.25;8.07;;;;;;;;;;4973759;28;20513;-84
2023/12/04 12:10:16;;;;;;;15.77;8.25;;;;;;;;;;4974049;28;20112;-84
2023/12/04 12:13:02;;;;;;;16.50;9.43;;;;;;;;;;4978556;28;20030;-84
2023/12/04 12:15:50;;;;;;;13.80;7.97;;;;;;;;;;4974297;28;20026;-85
2023/12/04 12:18:35;;;;;;;18.35;8.65;;;;;;;;;;4973720;28;20032;-84
2023/12/04 12:21:21;;;;;;;13.07;7.60;;;;;;;;;;4990525;28;20029;-85
2023/12/04 12:24:06;;;;;;;14.10;7.72;;;;;;;;;;4961859;28;20036;-85
2023/12/04 12:26:53;;;;;;;15.18;7.85;;;;;;;;;;4973869;28;20030;-85
2023/12/04 12:29:38;;;;;;;16.13;8.93;;;;;;;;;;4973341;28;20033;-85
2023/12/04 12:32:25;;;;;;;13.57;7.32;;;;;;;;;;4957226;28;20516;-86
2023/12/04 12:35:13;;;;;;;13.57;7.72;;;;;;;;;;4960768;28;20029;-85
2023/12/04 12:37:59;;;;;;;16.50;8.00;;;;;;;;;;4972482;28;20398;-86
2023/12/04 12:40:44;;;;;;;16.40;8.55;;;;;;;;;;4973637;28;20029;-85
2023/12/04 12:43:30;;;;;;;15.25;8.98;;;;;;;;;;4973184;28;20030;-86
2023/12/04 12:46:17;;;;;;;12.77;8.10;;;;;;;;;;4973491;28;20029;-85
2023/12/04 12:49:04;;;;;;;15.20;9.15;;;;;;;;;;4972817;28;20022;-85
2023/12/04 12:51:50;;;;;;;15.15;8.35;;;;;;;;;;4973772;28;20113;-85
2023/12/04 12:54:39;;;;;;;13.68;8.65;;;;;;;;;;4972965;28;20037;-85
2023/12/04 12:57:25;;;;;;;17.25;8.95;;;;;;;;;;4972482;28;20202;-86
2023/12/04 13:00:11;;;;;;;16.40;8.82;;;;;;;;;;4973905;28;20489;-85
2023/12/04 13:02:57;;;;;;;16.55;8.98;;;;;;;;;;4958820;28;20118;-85
2023/12/04 13:05:42;;;;;;;18.40;9.82;;;;;;;;;;4973428;28;20253;-84
2023/12/04 13:08:27;;;;;;;15.07;9.32;;;;;;;;;;4972815;28;20080;-84
2023/12/04 13:11:13;;;;;;;14.57;8.82;;;;;;;;;;4973954;28;20022;-85
2023/12/04 13:14:01;;;;;;;20.85;10.45;;;;;;;;;;4973030;28;20575;-85
2023/12/04 13:16:51;;;;;;;17.08;10.40;;;;;;;;;;4992659;28;20136;-84
2023/12/04 13:19:47;;;;;;;;;;;;;;;;;;;;;
2023/12/04 13:22:35;;;;;;;18.20;10.60;;;;;;;;;;4973299;28;20445;-85
2023/12/04 13:25:22;;;;;;;19.33;10.07;;;;;;;;;;4973233;28;20131;-86
2023/12/04 13:28:10;;;;;;;25.60;11.07;;;;;;;;;;4973904;28;20026;-86
2023/12/04 13:30:55;;;;;;;20.85;10.77;;;;;;;;;;4972779;28;20556;-85
2023/12/04 13:33:48;;;;;;;18.42;11.30;;;;;;;;;;4972442;28;20404;-85
2023/12/04 13:36:37;;;;;;;17.48;10.23;;;;;;;;;;4973134;28;20029;-86
2023/12/04 13:39:47;;;;;;;21.20;12.05;;;;;;;;;;4972760;28;20030;-85
2023/12/04 13:45:38;;;;;;;23.55;12.65;;;;;;;;;;4972546;28;20037;-86
2023/12/04 13:48:26;;;;;;;17.67;11.10;;;;;;;;;;4972732;28;20033;-85
2023/12/04 13:51:19;;;;;;;17.70;11.45;;;;;;;;;;4972859;28;20749;-86
2023/12/04 13:54:42;;;;;;;20.58;11.65;;;;;;;;;;4972835;28;20477;-85
2023/12/04 13:57:18;;;;;;;20.98;11.70;;;;;;;;;;4990760;28;20030;-86
2023/12/04 14:00:09;;;;;;;20.83;12.32;;;;;;;;;;4975367;28;20030;-86
2023/12/04 14:03:03;;;;;;;20.13;12.10;;;;;;;;;;4995055;28;20019;-86
2023/12/04 14:05:51;;;;;;;20.15;10.82;;;;;;;;;;4997756;28;20049;-86
2023/12/04 14:08:42;;;;;;;18.65;10.60;;;;;;;;;;4983752;28;20006;-87
2023/12/04 14:11:27;;;;;;;21.23;11.85;;;;;;;;;;4963756;28;20022;-86
2023/12/04 14:14:22;;;;;;;;;;;;;;;;;;;;;
2023/12/04 14:17:15;;;;;;;19.40;11.55;;;;;;;;;;4975944;28;20117;-87
2023/12/04 14:20:05;;;;;;;19.63;11.82;;;;;;;;;;4978018;28;20030;-86
2023/12/04 14:22:53;;;;;;;21.17;11.80;;;;;;;;;;4972460;28;20451;-86
2023/12/04 14:25:46;;;;;;;19.50;11.20;;;;;;;;;;4984016;28;20504;-86
2023/12/04 14:28:34;;;;;;;23.05;11.73;;;;;;;;;;4979829;28;20627;-85
2023/12/04 14:31:27;;;;;;;18.20;11.82;;;;;;;;;;4977085;28;20065;-84
2023/12/04 14:34:15;;;;;;;25.40;14.32;;;;;;;;;;4975983;28;20030;-85
2023/12/04 14:37:01;;;;;;;20.85;13.25;;;;;;;;;;4977873;28;20019;-86
2023/12/04 14:39:48;;;;;;;18.35;11.73;;;;;;;;;;4976060;28;20038;-85
2023/12/04 14:42:34;;;;;;;21.55;11.88;;;;;;;;;;4976631;28;20109;-84
2023/12/04 14:45:20;;;;;;;20.58;12.20;;;;;;;;;;4975587;28;20121;-86
2023/12/04 14:48:07;;;;;;;22.33;12.68;;;;;;;;;;4975894;28;20033;-86
2023/12/04 14:50:52;;;;;;;21.60;13.55;;;;;;;;;;4975622;28;20588;-87
2023/12/04 14:53:46;;;;;;;25.92;13.45;;;;;;;;;;4975688;28;20432;-87
2023/12/04 15:15:12;;;;;;;24.67;13.63;;;;;;;;;;4974724;28;20065;-86
2023/12/04 15:18:34;;;;;;;23.98;13.20;;;;;;;;;;4974881;28;20031;-86
2023/12/04 15:21:04;;;;;;;20.05;11.98;;;;;;;;;;4955851;28;20038;-86
2023/12/04 15:23:49;;;;;;;22.20;12.73;;;;;;;;;;4960853;28;20034;-86
2023/12/04 15:26:34;;;;;;;20.50;12.20;;;;;;;;;;4974325;28;20027;-86
2023/12/04 15:29:23;;;;;;;21.63;12.20;;;;;;;;;;4975179;28;20038;-87
2023/12/04 15:32:10;;;;;;;18.75;11.77;;;;;;;;;;4975395;28;20046;-86
2023/12/04 15:34:59;;;;;;;20.65;12.38;;;;;;;;;;4973887;28;20385;-87
2023/12/04 15:37:44;;;;;;;21.92;14.00;;;;;;;;;;4974755;28;20057;-85
2023/12/04 15:40:32;;;;;;;19.55;11.52;;;;;;;;;;4961325;28;20114;-86
2023/12/04 15:43:17;;;;;;;21.85;12.82;;;;;;;;;;4974751;28;20397;-86
2023/12/04 15:46:05;;;;;;;20.83;11.52;;;;;;;;;;4974879;28;20113;-86
2023/12/04 15:48:51;;;;;;;24.05;12.80;;;;;;;;;;4974363;28;20404;-85
2023/12/04 15:51:37;;;;;;;20.80;12.52;;;;;;;;;;4974877;28;20033;-88
2023/12/04 15:54:22;;;;;;;21.27;11.52;;;;;;;;;;4974630;28;20025;-87
2023/12/04 15:57:16;;;;;;;21.02;12.68;;;;;;;;;;4960889;28;20117;-87
2023/12/04 16:00:01;;;;;;;20.60;12.05;;;;;;;;;;4974018;28;20034;-88
2023/12/04 16:02:47;;;;;;;20.58;11.60;;;;;;;;;;4974497;28;20061;-86
2023/12/04 16:05:33;;;;;;;22.20;11.52;;;;;;;;;;4983331;28;20025;-85
2023/12/04 16:08:18;;;;;;;22.02;12.45;;;;;;;;;;4968819;28;20027;-86
2023/12/04 16:11:03;;;;;;;26.05;14.32;;;;;;;;;;4954407;28;20063;-86
2023/12/04 16:13:52;;;;;;;22.95;13.23;;;;;;;;;;4978034;28;20036;-85
2023/12/04 16:16:38;;;;;;;22.98;12.70;;;;;;;;;;4974511;28;20465;-87
2023/12/04 16:19:23;;;;;;;20.73;12.40;;;;;;;;;;4973559;28;20014;-87
2023/12/04 16:22:08;;;;;;;18.77;11.40;;;;;;;;;;4974712;28;20416;-86
2023/12/04 16:24:53;;;;;;;21.42;12.35;;;;;;;;;;4973905;28;20034;-87
2023/12/04 16:27:39;;;;;;;21.45;12.50;;;;;;;;;;4973834;28;20104;-86
2023/12/04 16:30:27;;;;;;;25.08;12.48;;;;;;;;;;4973762;28;20101;-86
2023/12/04 16:33:15;;;;;;;23.70;13.60;;;;;;;;;;4972582;28;20037;-86
2023/12/04 16:39:23;;;;;;;24.10;12.65;;;;;;;;;;4983186;28;20029;-89
2023/12/04 16:49:25;;;;;;;22.83;13.57;;;;;;;;;;4890730;29;20036;-85
2023/12/04 17:00:19;;;;;;;23.83;13.27;;;;;;;;;;4853278;29;20049;-88
2023/12/04 17:21:05;;;;;;;25.33;13.50;;;;;;;;;;5859659;22;10133978;-91